Lake Worth, FL (33460)

5:21 PM EST on December 02, 2016 (GMT -0500)
Lake Clarke Shores - Caribbean Rd. East | | Change Station

Elev 16 ft 26.63 °N, 80.07 °W | Updated 20 seconds ago

Scattered Clouds
Scattered Clouds
77.7 °F
Feels Like 80 °F
N
3.1
Wind Variable Wind from NNW
Gusts 3.1 mph

Today
High -- | Low -- °F
--% Chance of Precip.
Yesterday
High -- | Low -- °F
Precip. -- in
Pressure 30.06 in
Visibility 10.0 miles
Clouds Scattered Clouds 2700 ft
Scattered Clouds 5500 ft
Heat Index 80 °F
Dew Point 71 °F
Humidity 79%
Rainfall 0.00 in
Snow Depth Not available.
6:52 AM 5:27 PM
Waxing Crescent, 10% visible
METAR KPBI 022153Z 02010KT 10SM SCT027 SCT055 26/19 A3006 RMK AO2 SLP178 T02560194
Pressure 30.06 in
Visibility 10.0 miles
Clouds Scattered Clouds 2700 ft
Scattered Clouds 5500 ft
Heat Index 80 °F
Dew Point 71 °F
Humidity 79%
Rainfall 0.00 in
Snow Depth Not available.
6:52 AM 5:27 PM
Waxing Crescent, 10% visible
METAR KPBI 022153Z 02010KT 10SM SCT027 SCT055 26/19 A3006 RMK AO2 SLP178 T02560194

10-Day Weather Forecast

Almanac

Astronomy

Dec. 02, 2016 Rise Set
Actual Time
Civil Twilight
Nautical Twilight
Astronomical Twilight
Moon
Length of Visible Light
Length of Day
Tomorrow will be .
, % of the Moon is Illuminated

Today's Extremes

State Highs State Lows

Community

WunderPhotos

Upload Photos

1,955,376 photos uploaded!

WunderBlog® & News

Nearby

Air Quality

  Air Quality AQ Index Pollutant
Not available.

Snow Depth

Station Depth Elevation

Earthquake Activity

City Distance Mag. Time & Date
Minimum magnitude displayed is 2.5.

Coastal Water Temperatures

Place Temperature

Stations

Nearby Weather Stations

Station Location Temp. Windchill Dew Point Humidity Wind Precip. Elev Updated Type
                   

Watches & Warnings

There are currently no watches in effect.